Snettisham, United Kingdom
Current Conditions -  °F | °C
As of 2:50 AM on Friday 31 Oct 2014 (Local Time) from EGYM Reporting Station
Haze Haze  
Wind Chill: 57°   Ceiling: 21000
Heat Index: 57°   Visibility: 5mi
Dew Point: 54°   Wind: 8mph
Humidity: 88%   Direction: 170°S
Pressure: 30.03"   Gusts: NA
Location:  52.88°N, 0.5°E
Report Text: EGYM 310250Z AUTO 17007KT 8000 HZ SCT041/// BKN210/// 14/12 Q1017
Loading
Personal Weather Stations






























Interactive Weather Map
Tropical Storm Tracking
New forecast layout! Learn more

10-Day Weather Forecast

Advertisements
Track Severe Weather on mobile